sensor_id;sensor_type;location;lat;lon;timestamp;pressure;altitude;pressure_sealevel;temperature;humidity
83448;BME280;73376;45.472;-73.568;2023-10-31T00:02:08;101027.25;;;5.13;65.77
83448;BME280;73376;45.472;-73.568;2023-10-31T00:04:34;101026.25;;;5.06;66.03
83448;BME280;73376;45.472;-73.568;2023-10-31T00:07:00;101028.44;;;5.03;66.47
83448;BME280;73376;45.472;-73.568;2023-10-31T00:09:29;101021.19;;;4.95;66.31
83448;BME280;73376;45.472;-73.568;2023-10-31T00:11:55;101052.28;;;5.15;66.39
83448;BME280;73376;45.472;-73.568;2023-10-31T00:14:20;101044.69;;;5.11;66.81
83448;BME280;73376;45.472;-73.568;2023-10-31T00:16:46;101048.59;;;5.08;66.91
83448;BME280;73376;45.472;-73.568;2023-10-31T00:19:15;101070.28;;;5.16;66.98
83448;BME280;73376;45.472;-73.568;2023-10-31T00:21:41;101056.56;;;5.10;67.51
83448;BME280;73376;45.472;-73.568;2023-10-31T00:24:07;101062.97;;;5.09;67.82
83448;BME280;73376;45.472;-73.568;2023-10-31T00:26:33;101075.31;;;5.19;67.66
83448;BME280;73376;45.472;-73.568;2023-10-31T00:28:59;101079.06;;;5.18;67.69
83448;BME280;73376;45.472;-73.568;2023-10-31T00:31:27;101082.09;;;5.15;67.76
83448;BME280;73376;45.472;-73.568;2023-10-31T00:33:56;101073.16;;;5.07;67.23
83448;BME280;73376;45.472;-73.568;2023-10-31T00:36:25;101064.72;;;4.93;66.83
83448;BME280;73376;45.472;-73.568;2023-10-31T00:38:54;101072.00;;;4.93;66.72
83448;BME280;73376;45.472;-73.568;2023-10-31T00:41:19;101073.00;;;4.84;66.67
83448;BME280;73376;45.472;-73.568;2023-10-31T00:43:45;101084.53;;;4.78;66.88
83448;BME280;73376;45.472;-73.568;2023-10-31T00:46:11;101079.13;;;4.69;66.80
83448;BME280;73376;45.472;-73.568;2023-10-31T00:48:37;101079.09;;;4.61;66.65
83448;BME280;73376;45.472;-73.568;2023-10-31T00:51:04;101077.75;;;4.49;66.71
83448;BME280;73376;45.472;-73.568;2023-10-31T00:53:31;101101.78;;;4.52;66.62
83448;BME280;73376;45.472;-73.568;2023-10-31T00:55:57;101099.09;;;4.52;66.68
83448;BME280;73376;45.472;-73.568;2023-10-31T00:58:23;101089.59;;;4.48;66.80
83448;BME280;73376;45.472;-73.568;2023-10-31T01:00:49;101070.28;;;4.35;66.15
83448;BME280;73376;45.472;-73.568;2023-10-31T01:03:15;101097.00;;;4.38;65.99
83448;BME280;73376;45.472;-73.568;2023-10-31T01:05:41;101085.50;;;4.19;65.70
83448;BME280;73376;45.472;-73.568;2023-10-31T01:08:07;101097.16;;;4.20;65.71
83448;BME280;73376;45.472;-73.568;2023-10-31T01:10:33;101101.91;;;4.18;65.66
83448;BME280;73376;45.472;-73.568;2023-10-31T01:12:59;101084.41;;;3.96;65.45
83448;BME280;73376;45.472;-73.568;2023-10-31T01:15:25;101116.03;;;4.03;65.66
83448;BME280;73376;45.472;-73.568;2023-10-31T01:17:51;101124.84;;;3.97;65.70
83448;BME280;73376;45.472;-73.568;2023-10-31T01:20:17;101122.59;;;3.85;65.99
83448;BME280;73376;45.472;-73.568;2023-10-31T01:22:43;101134.41;;;3.84;65.72
83448;BME280;73376;45.472;-73.568;2023-10-31T01:25:09;101139.59;;;3.77;64.95
83448;BME280;73376;45.472;-73.568;2023-10-31T01:27:36;101136.34;;;3.65;64.76
83448;BME280;73376;45.472;-73.568;2023-10-31T01:30:02;101132.59;;;3.58;64.50
83448;BME280;73376;45.472;-73.568;2023-10-31T01:32:29;101162.53;;;3.65;64.42
83448;BME280;73376;45.472;-73.568;2023-10-31T01:34:55;101155.69;;;3.52;64.31
83448;BME280;73376;45.472;-73.568;2023-10-31T01:37:20;101148.41;;;3.45;64.30
83448;BME280;73376;45.472;-73.568;2023-10-31T01:39:47;101185.13;;;3.55;64.07
83448;BME280;73376;45.472;-73.568;2023-10-31T01:42:14;101176.81;;;3.49;63.31
83448;BME280;73376;45.472;-73.568;2023-10-31T01:44:41;101183.84;;;3.42;63.07
83448;BME280;73376;45.472;-73.568;2023-10-31T01:47:07;101184.03;;;3.40;63.02
83448;BME280;73376;45.472;-73.568;2023-10-31T01:49:36;101176.81;;;3.23;62.74
83448;BME280;73376;45.472;-73.568;2023-10-31T01:52:06;101192.84;;;3.24;62.61
83448;BME280;73376;45.472;-73.568;2023-10-31T01:54:35;101182.97;;;3.15;62.98
83448;BME280;73376;45.472;-73.568;2023-10-31T01:57:02;101205.50;;;3.24;63.01
83448;BME280;73376;45.472;-73.568;2023-10-31T01:59:30;101199.50;;;3.12;62.75
83448;BME280;73376;45.472;-73.568;2023-10-31T02:01:57;101209.94;;;3.07;62.71
83448;BME280;73376;45.472;-73.568;2023-10-31T02:04:24;101221.41;;;3.09;62.79
83448;BME280;73376;45.472;-73.568;2023-10-31T02:06:50;101211.16;;;2.95;62.68
83448;BME280;73376;45.472;-73.568;2023-10-31T02:09:16;101245.66;;;3.01;62.49
83448;BME280;73376;45.472;-73.568;2023-10-31T02:11:42;101219.81;;;2.80;62.49
83448;BME280;73376;45.472;-73.568;2023-10-31T02:14:10;101238.47;;;2.92;62.62
83448;BME280;73376;45.472;-73.568;2023-10-31T02:16:36;101247.06;;;2.87;62.66
83448;BME280;73376;45.472;-73.568;2023-10-31T02:19:03;101248.50;;;2.81;62.32
83448;BME280;73376;45.472;-73.568;2023-10-31T02:21:30;101235.94;;;2.72;62.46
83448;BME280;73376;45.472;-73.568;2023-10-31T02:26:23;101222.66;;;2.61;62.40
83448;BME280;73376;45.472;-73.568;2023-10-31T02:28:49;101250.28;;;2.73;62.28
83448;BME280;73376;45.472;-73.568;2023-10-31T02:31:15;101260.91;;;2.74;62.30
83448;BME280;73376;45.472;-73.568;2023-10-31T02:33:41;101260.25;;;2.72;62.46
83448;BME280;73376;45.472;-73.568;2023-10-31T02:36:07;101272.31;;;2.68;62.85
83448;BME280;73376;45.472;-73.568;2023-10-31T02:38:33;101268.94;;;2.66;62.89
83448;BME280;73376;45.472;-73.568;2023-10-31T02:40:59;101265.28;;;2.57;62.67
83448;BME280;73376;45.472;-73.568;2023-10-31T02:43:25;101276.94;;;2.58;62.85
83448;BME280;73376;45.472;-73.568;2023-10-31T02:45:51;101277.13;;;2.47;63.02
83448;BME280;73376;45.472;-73.568;2023-10-31T02:48:17;101287.63;;;2.50;63.03
83448;BME280;73376;45.472;-73.568;2023-10-31T02:50:43;101299.28;;;2.50;63.25
83448;BME280;73376;45.472;-73.568;2023-10-31T02:53:10;101306.81;;;2.47;63.15
83448;BME280;73376;45.472;-73.568;2023-10-31T02:55:36;101307.97;;;2.44;63.16
83448;BME280;73376;45.472;-73.568;2023-10-31T02:58:02;101310.97;;;2.41;63.08
83448;BME280;73376;45.472;-73.568;2023-10-31T03:00:28;101297.13;;;2.26;63.00
83448;BME280;73376;45.472;-73.568;2023-10-31T03:02:54;101323.22;;;2.35;63.08
83448;BME280;73376;45.472;-73.568;2023-10-31T03:05:20;101313.75;;;2.22;63.07
83448;BME280;73376;45.472;-73.568;2023-10-31T03:07:46;101323.81;;;2.29;63.09
83448;BME280;73376;45.472;-73.568;2023-10-31T03:10:12;101333.19;;;2.25;62.96
83448;BME280;73376;45.472;-73.568;2023-10-31T03:12:38;101305.44;;;2.05;62.90
83448;BME280;73376;45.472;-73.568;2023-10-31T03:15:04;101333.06;;;2.17;63.13
83448;BME280;73376;45.472;-73.568;2023-10-31T03:17:32;101327.41;;;2.10;62.99
83448;BME280;73376;45.472;-73.568;2023-10-31T03:19:58;101343.72;;;2.19;62.93
83448;BME280;73376;45.472;-73.568;2023-10-31T03:22:24;101347.72;;;2.15;63.00
83448;BME280;73376;45.472;-73.568;2023-10-31T03:24:50;101338.34;;;2.09;63.23
83448;BME280;73376;45.472;-73.568;2023-10-31T03:27:16;101311.44;;;1.89;63.23
83448;BME280;73376;45.472;-73.568;2023-10-31T03:29:42;101330.84;;;1.93;63.08
83448;BME280;73376;45.472;-73.568;2023-10-31T03:32:08;101343.34;;;2.04;63.06
83448;BME280;73376;45.472;-73.568;2023-10-31T03:34:35;101351.56;;;2.02;63.00
83448;BME280;73376;45.472;-73.568;2023-10-31T03:37:01;101321.81;;;1.84;63.00
83448;BME280;73376;45.472;-73.568;2023-10-31T03:39:27;101324.22;;;1.87;63.10
83448;BME280;73376;45.472;-73.568;2023-10-31T03:41:56;101354.72;;;1.98;63.08
83448;BME280;73376;45.472;-73.568;2023-10-31T03:44:22;101356.84;;;1.94;63.03
83448;BME280;73376;45.472;-73.568;2023-10-31T03:46:47;101353.59;;;1.91;63.18
83448;BME280;73376;45.472;-73.568;2023-10-31T03:49:13;101320.25;;;1.72;63.35
83448;BME280;73376;45.472;-73.568;2023-10-31T03:51:39;101339.28;;;1.80;63.29
83448;BME280;73376;45.472;-73.568;2023-10-31T03:54:05;101323.81;;;1.73;63.26
83448;BME280;73376;45.472;-73.568;2023-10-31T03:56:39;101344.41;;;1.74;63.29
83448;BME280;73376;45.472;-73.568;2023-10-31T03:59:05;101334.03;;;1.69;63.43
83448;BME280;73376;45.472;-73.568;2023-10-31T04:01:31;101340.25;;;1.70;63.17
83448;BME280;73376;45.472;-73.568;2023-10-31T04:03:59;101355.00;;;1.75;64.04
83448;BME280;73376;45.472;-73.568;2023-10-31T04:06:25;101346.09;;;1.65;63.97
83448;BME280;73376;45.472;-73.568;2023-10-31T04:08:51;101337.88;;;1.57;63.85
83448;BME280;73376;45.472;-73.568;2023-10-31T04:11:17;101375.00;;;1.73;64.15
83448;BME280;73376;45.472;-73.568;2023-10-31T04:13:43;101367.22;;;1.70;64.32
83448;BME280;73376;45.472;-73.568;2023-10-31T04:16:09;101349.50;;;1.57;64.22
83448;BME280;73376;45.472;-73.568;2023-10-31T04:18:36;101362.25;;;1.55;64.27
83448;BME280;73376;45.472;-73.568;2023-10-31T04:21:03;101368.38;;;1.57;64.61
83448;BME280;73376;45.472;-73.568;2023-10-31T04:23:29;101374.88;;;1.55;64.72
83448;BME280;73376;45.472;-73.568;2023-10-31T04:25:55;101400.44;;;1.70;64.63
83448;BME280;73376;45.472;-73.568;2023-10-31T04:28:21;101400.44;;;1.70;64.66
83448;BME280;73376;45.472;-73.568;2023-10-31T04:30:47;101376.84;;;1.53;64.62
83448;BME280;73376;45.472;-73.568;2023-10-31T04:33:13;101405.94;;;1.69;64.52
83448;BME280;73376;45.472;-73.568;2023-10-31T04:35:39;101408.66;;;1.69;64.61
83448;BME280;73376;45.472;-73.568;2023-10-31T04:38:05;101414.88;;;1.69;64.38
83448;BME280;73376;45.472;-73.568;2023-10-31T04:40:31;101412.63;;;1.64;64.39
83448;BME280;73376;45.472;-73.568;2023-10-31T04:42:57;101422.28;;;1.67;64.20
83448;BME280;73376;45.472;-73.568;2023-10-31T04:45:23;101412.75;;;1.63;64.23
83448;BME280;73376;45.472;-73.568;2023-10-31T04:47:51;101425.09;;;1.65;64.26
83448;BME280;73376;45.472;-73.568;2023-10-31T04:50:17;101412.91;;;1.52;63.95
83448;BME280;73376;45.472;-73.568;2023-10-31T04:52:43;101420.41;;;1.48;64.16
83448;BME280;73376;45.472;-73.568;2023-10-31T04:55:09;101428.50;;;1.58;64.10
83448;BME280;73376;45.472;-73.568;2023-10-31T04:57:35;101441.97;;;1.58;64.32
83448;BME280;73376;45.472;-73.568;2023-10-31T05:00:01;101444.94;;;1.55;64.12
83448;BME280;73376;45.472;-73.568;2023-10-31T05:02:31;101450.50;;;1.53;64.20
83448;BME280;73376;45.472;-73.568;2023-10-31T05:04:57;101440.81;;;1.41;64.14
83448;BME280;73376;45.472;-73.568;2023-10-31T05:07:24;101447.50;;;1.47;64.29
83448;BME280;73376;45.472;-73.568;2023-10-31T05:09:50;101444.38;;;1.41;64.15
83448;BME280;73376;45.472;-73.568;2023-10-31T05:12:16;101397.84;;;1.20;64.17
83448;BME280;73376;45.472;-73.568;2023-10-31T05:14:42;101455.03;;;1.43;64.46
83448;BME280;73376;45.472;-73.568;2023-10-31T05:17:08;101421.81;;;1.23;64.70
83448;BME280;73376;45.472;-73.568;2023-10-31T05:19:38;101449.44;;;1.35;64.40
83448;BME280;73376;45.472;-73.568;2023-10-31T05:22:04;101450.28;;;1.35;64.35
83448;BME280;73376;45.472;-73.568;2023-10-31T05:24:30;101459.66;;;1.31;64.53
83448;BME280;73376;45.472;-73.568;2023-10-31T05:26:57;101467.03;;;1.29;64.55
83448;BME280;73376;45.472;-73.568;2023-10-31T05:29:23;101454.78;;;1.15;64.77
83448;BME280;73376;45.472;-73.568;2023-10-31T05:31:49;101459.47;;;1.13;64.91
83448;BME280;73376;45.472;-73.568;2023-10-31T05:34:18;101447.28;;;1.09;64.90
83448;BME280;73376;45.472;-73.568;2023-10-31T05:36:44;101466.44;;;1.16;64.85
83448;BME280;73376;45.472;-73.568;2023-10-31T05:39:10;101458.16;;;1.08;65.13
83448;BME280;73376;45.472;-73.568;2023-10-31T05:41:36;101458.59;;;1.03;64.58
83448;BME280;73376;45.472;-73.568;2023-10-31T05:44:02;101455.91;;;1.03;64.82
83448;BME280;73376;45.472;-73.568;2023-10-31T05:46:28;101459.59;;;1.02;64.96
83448;BME280;73376;45.472;-73.568;2023-10-31T05:48:54;101471.22;;;1.03;64.85
83448;BME280;73376;45.472;-73.568;2023-10-31T05:51:20;101480.81;;;1.05;65.18
83448;BME280;73376;45.472;-73.568;2023-10-31T05:53:51;101485.09;;;1.08;65.13
83448;BME280;73376;45.472;-73.568;2023-10-31T05:56:17;101495.16;;;1.06;65.34
83448;BME280;73376;45.472;-73.568;2023-10-31T05:58:46;101474.28;;;0.98;65.62
83448;BME280;73376;45.472;-73.568;2023-10-31T06:01:12;101492.00;;;1.01;65.46
83448;BME280;73376;45.472;-73.568;2023-10-31T06:03:41;101430.22;;;0.59;65.50
83448;BME280;73376;45.472;-73.568;2023-10-31T06:06:08;101497.66;;;0.98;65.70
83448;BME280;73376;45.472;-73.568;2023-10-31T06:08:34;101476.22;;;0.86;65.65
83448;BME280;73376;45.472;-73.568;2023-10-31T06:11:00;101481.88;;;0.83;65.64
83448;BME280;73376;45.472;-73.568;2023-10-31T06:13:26;101506.00;;;0.94;65.49
83448;BME280;73376;45.472;-73.568;2023-10-31T06:15:55;101459.66;;;0.60;65.49
83448;BME280;73376;45.472;-73.568;2023-10-31T06:18:22;101499.16;;;0.81;65.64
83448;BME280;73376;45.472;-73.568;2023-10-31T06:20:48;101512.81;;;0.89;65.81
83448;BME280;73376;45.472;-73.568;2023-10-31T06:23:14;101513.06;;;0.86;65.89
83448;BME280;73376;45.472;-73.568;2023-10-31T06:25:40;101499.38;;;0.68;65.95
83448;BME280;73376;45.472;-73.568;2023-10-31T06:28:06;101508.75;;;0.74;65.89
83448;BME280;73376;45.472;-73.568;2023-10-31T06:30:32;101509.00;;;0.70;65.90
83448;BME280;73376;45.472;-73.568;2023-10-31T06:32:58;101524.50;;;0.78;65.88
83448;BME280;73376;45.472;-73.568;2023-10-31T06:35:28;101507.97;;;0.62;65.85
83448;BME280;73376;45.472;-73.568;2023-10-31T06:37:55;101503.13;;;0.56;65.82
83448;BME280;73376;45.472;-73.568;2023-10-31T06:40:25;101542.03;;;0.73;65.84
83448;BME280;73376;45.472;-73.568;2023-10-31T06:42:54;101536.31;;;0.66;65.72
83448;BME280;73376;45.472;-73.568;2023-10-31T06:45:20;101530.88;;;0.56;65.96
83448;BME280;73376;45.472;-73.568;2023-10-31T06:47:46;101551.03;;;0.62;65.83
83448;BME280;73376;45.472;-73.568;2023-10-31T06:50:12;101551.28;;;0.59;65.94
83448;BME280;73376;45.472;-73.568;2023-10-31T06:52:41;101547.94;;;0.45;66.61
83448;BME280;73376;45.472;-73.568;2023-10-31T06:55:09;101541.81;;;0.43;66.63
83448;BME280;73376;45.472;-73.568;2023-10-31T06:57:38;101554.66;;;0.51;66.44
83448;BME280;73376;45.472;-73.568;2023-10-31T07:00:06;101548.34;;;0.41;66.63
83448;BME280;73376;45.472;-73.568;2023-10-31T07:02:34;101561.13;;;0.49;66.53
83448;BME280;73376;45.472;-73.568;2023-10-31T07:05:00;101552.34;;;0.46;66.61
83448;BME280;73376;45.472;-73.568;2023-10-31T07:07:27;101548.94;;;0.44;66.42
83448;BME280;73376;45.472;-73.568;2023-10-31T07:09:53;101554.56;;;0.41;66.52
83448;BME280;73376;45.472;-73.568;2023-10-31T07:12:19;101551.41;;;0.36;66.51
83448;BME280;73376;45.472;-73.568;2023-10-31T07:14:45;101556.66;;;0.38;66.54
83448;BME280;73376;45.472;-73.568;2023-10-31T07:17:11;101556.19;;;0.33;66.71
83448;BME280;73376;45.472;-73.568;2023-10-31T07:19:37;101565.97;;;0.34;66.80
83448;BME280;73376;45.472;-73.568;2023-10-31T07:22:03;101562.41;;;0.33;66.87
83448;BME280;73376;45.472;-73.568;2023-10-31T07:24:29;101528.44;;;0.11;66.64
83448;BME280;73376;45.472;-73.568;2023-10-31T07:26:55;101549.63;;;0.26;66.61
83448;BME280;73376;45.472;-73.568;2023-10-31T07:29:21;101539.88;;;0.13;66.61
83448;BME280;73376;45.472;-73.568;2023-10-31T07:31:47;101537.34;;;0.12;66.94
83448;BME280;73376;45.472;-73.568;2023-10-31T07:34:13;101506.91;;;-0.10;66.75
83448;BME280;73376;45.472;-73.568;2023-10-31T07:36:40;101544.34;;;0.03;66.90
83448;BME280;73376;45.472;-73.568;2023-10-31T07:39:07;101568.63;;;0.13;67.01
83448;BME280;73376;45.472;-73.568;2023-10-31T07:41:33;101560.59;;;0.02;67.02
83448;BME280;73376;45.472;-73.568;2023-10-31T07:43:59;101564.41;;;-0.01;67.09
83448;BME280;73376;45.472;-73.568;2023-10-31T07:46:25;101542.19;;;-0.14;66.99
83448;BME280;73376;45.472;-73.568;2023-10-31T07:48:50;101559.06;;;-0.12;67.35
83448;BME280;73376;45.472;-73.568;2023-10-31T07:51:16;101578.94;;;-0.04;67.69
83448;BME280;73376;45.472;-73.568;2023-10-31T07:53:45;101550.31;;;-0.26;67.71
83448;BME280;73376;45.472;-73.568;2023-10-31T07:56:18;101581.03;;;-0.07;68.08
83448;BME280;73376;45.472;-73.568;2023-10-31T07:58:49;101579.47;;;-0.10;68.52
83448;BME280;73376;45.472;-73.568;2023-10-31T08:01:17;101579.72;;;-0.13;68.61
83448;BME280;73376;45.472;-73.568;2023-10-31T08:03:47;101583.97;;;-0.10;68.48
83448;BME280;73376;45.472;-73.568;2023-10-31T08:06:15;101574.59;;;-0.16;68.61
83448;BME280;73376;45.472;-73.568;2023-10-31T08:08:41;101585.78;;;-0.11;68.33
83448;BME280;73376;45.472;-73.568;2023-10-31T08:11:08;101587.78;;;-0.13;68.55
83448;BME280;73376;45.472;-73.568;2023-10-31T08:13:36;101595.84;;;-0.13;68.51
83448;BME280;73376;45.472;-73.568;2023-10-31T08:16:06;101586.69;;;-0.21;69.10
83448;BME280;73376;45.472;-73.568;2023-10-31T08:18:32;101580.31;;;-0.20;69.00
83448;BME280;73376;45.472;-73.568;2023-10-31T08:21:03;101586.03;;;-0.14;69.21
83448;BME280;73376;45.472;-73.568;2023-10-31T08:23:29;101567.53;;;-0.28;69.28
83448;BME280;73376;45.472;-73.568;2023-10-31T08:25:55;101580.59;;;-0.23;69.57
83448;BME280;73376;45.472;-73.568;2023-10-31T08:28:21;101587.88;;;-0.14;69.41
83448;BME280;73376;45.472;-73.568;2023-10-31T08:30:47;101599.47;;;-0.14;69.56
83448;BME280;73376;45.472;-73.568;2023-10-31T08:33:13;101587.06;;;-0.26;69.51
83448;BME280;73376;45.472;-73.568;2023-10-31T08:35:39;101595.72;;;-0.22;69.54
83448;BME280;73376;45.472;-73.568;2023-10-31T08:38:07;101569.00;;;-0.35;69.50
83448;BME280;73376;45.472;-73.568;2023-10-31T08:40:32;101602.16;;;-0.14;69.54
83448;BME280;73376;45.472;-73.568;2023-10-31T08:43:01;101591.94;;;-0.20;69.83
83448;BME280;73376;45.472;-73.568;2023-10-31T08:45:32;101601.47;;;-0.16;69.92
83448;BME280;73376;45.472;-73.568;2023-10-31T08:47:59;101570.19;;;-0.28;69.44
83448;BME280;73376;45.472;-73.568;2023-10-31T08:50:25;101601.91;;;-0.11;69.42
83448;BME280;73376;45.472;-73.568;2023-10-31T08:52:50;101587.41;;;-0.19;69.24
83448;BME280;73376;45.472;-73.568;2023-10-31T08:55:17;101614.50;;;-0.11;69.11
83448;BME280;73376;45.472;-73.568;2023-10-31T08:57:46;101615.50;;;-0.12;69.24
83448;BME280;73376;45.472;-73.568;2023-10-31T09:00:12;101593.53;;;-0.29;69.60
83448;BME280;73376;45.472;-73.568;2023-10-31T09:02:38;101592.56;;;-0.28;69.54
83448;BME280;73376;45.472;-73.568;2023-10-31T09:05:07;101595.38;;;-0.29;69.38
83448;BME280;73376;45.472;-73.568;2023-10-31T09:07:33;101619.41;;;-0.16;69.25
83448;BME280;73376;45.472;-73.568;2023-10-31T09:10:00;101615.88;;;-0.17;69.51
83448;BME280;73376;45.472;-73.568;2023-10-31T09:12:25;101623.94;;;-0.17;69.34
83448;BME280;73376;45.472;-73.568;2023-10-31T09:14:52;101617.63;;;-0.27;69.31
83448;BME280;73376;45.472;-73.568;2023-10-31T09:17:18;101617.13;;;-0.32;69.87
83448;BME280;73376;45.472;-73.568;2023-10-31T09:19:45;101626.28;;;-0.23;69.87
83448;BME280;73376;45.472;-73.568;2023-10-31T09:22:11;101587.22;;;-0.50;69.54
83448;BME280;73376;45.472;-73.568;2023-10-31T09:24:37;101630.06;;;-0.26;69.20
83448;BME280;73376;45.472;-73.568;2023-10-31T09:27:03;101627.47;;;-0.28;69.83
83448;BME280;73376;45.472;-73.568;2023-10-31T09:29:29;101644.72;;;-0.19;69.57
83448;BME280;73376;45.472;-73.568;2023-10-31T09:31:55;101648.03;;;-0.27;69.75
83448;BME280;73376;45.472;-73.568;2023-10-31T09:34:21;101639.47;;;-0.32;69.43
83448;BME280;73376;45.472;-73.568;2023-10-31T09:36:47;101658.25;;;-0.20;69.58
83448;BME280;73376;45.472;-73.568;2023-10-31T09:39:13;101658.13;;;-0.19;69.63
83448;BME280;73376;45.472;-73.568;2023-10-31T09:41:39;101647.78;;;-0.23;69.45
83448;BME280;73376;45.472;-73.568;2023-10-31T09:44:05;101654.59;;;-0.19;69.69
83448;BME280;73376;45.472;-73.568;2023-10-31T09:46:31;101639.69;;;-0.35;69.07
83448;BME280;73376;45.472;-73.568;2023-10-31T09:48:57;101625.66;;;-0.38;69.08
83448;BME280;73376;45.472;-73.568;2023-10-31T09:51:24;101646.91;;;-0.35;69.48
83448;BME280;73376;45.472;-73.568;2023-10-31T09:53:51;101627.38;;;-0.49;69.35
83448;BME280;73376;45.472;-73.568;2023-10-31T09:56:22;101650.59;;;-0.36;69.26
83448;BME280;73376;45.472;-73.568;2023-10-31T09:58:48;101674.75;;;-0.25;69.37
83448;BME280;73376;45.472;-73.568;2023-10-31T10:01:16;101664.72;;;-0.34;69.36
83448;BME280;73376;45.472;-73.568;2023-10-31T10:03:45;101673.66;;;-0.34;69.03
83448;BME280;73376;45.472;-73.568;2023-10-31T10:06:14;101691.88;;;-0.26;69.07
83448;BME280;73376;45.472;-73.568;2023-10-31T10:08:40;101647.91;;;-0.47;69.13
83448;BME280;73376;45.472;-73.568;2023-10-31T10:11:06;101687.56;;;-0.29;69.22
83448;BME280;73376;45.472;-73.568;2023-10-31T10:13:35;101683.28;;;-0.31;69.14
83448;BME280;73376;45.472;-73.568;2023-10-31T10:16:02;101695.88;;;-0.32;68.82
83448;BME280;73376;45.472;-73.568;2023-10-31T10:18:29;101683.06;;;-0.39;68.93
83448;BME280;73376;45.472;-73.568;2023-10-31T10:21:02;101677.94;;;-0.42;68.78
83448;BME280;73376;45.472;-73.568;2023-10-31T10:23:29;101697.97;;;-0.35;69.07
83448;BME280;73376;45.472;-73.568;2023-10-31T10:25:57;101689.06;;;-0.47;68.64
83448;BME280;73376;45.472;-73.568;2023-10-31T10:28:24;101696.50;;;-0.39;68.74
83448;BME280;73376;45.472;-73.568;2023-10-31T10:30:55;101675.97;;;-0.52;68.69
83448;BME280;73376;45.472;-73.568;2023-10-31T10:33:21;101700.16;;;-0.40;68.44
83448;BME280;73376;45.472;-73.568;2023-10-31T10:35:48;101696.25;;;-0.47;68.74
83448;BME280;73376;45.472;-73.568;2023-10-31T10:38:18;101707.47;;;-0.42;68.39
83448;BME280;73376;45.472;-73.568;2023-10-31T10:40:48;101708.47;;;-0.43;68.38
83448;BME280;73376;45.472;-73.568;2023-10-31T10:43:22;101699.91;;;-0.49;68.55
83448;BME280;73376;45.472;-73.568;2023-10-31T10:48:21;101703.56;;;-0.50;68.43
83448;BME280;73376;45.472;-73.568;2023-10-31T10:50:55;101694.41;;;-0.58;68.35
83448;BME280;73376;45.472;-73.568;2023-10-31T10:53:24;101711.72;;;-0.51;68.39
83448;BME280;73376;45.472;-73.568;2023-10-31T10:56:00;101667.53;;;-0.81;68.39
83448;BME280;73376;45.472;-73.568;2023-10-31T11:01:11;101727.00;;;-0.52;68.35
83448;BME280;73376;45.472;-73.568;2023-10-31T11:03:40;101720.78;;;-0.52;68.06
83448;BME280;73376;45.472;-73.568;2023-10-31T11:06:06;101731.41;;;-0.51;67.85
83448;BME280;73376;45.472;-73.568;2023-10-31T11:08:33;101730.66;;;-0.53;67.99
83448;BME280;73376;45.472;-73.568;2023-10-31T11:10:59;101733.59;;;-0.56;67.64
83448;BME280;73376;45.472;-73.568;2023-10-31T11:13:26;101744.94;;;-0.52;67.88
83448;BME280;73376;45.472;-73.568;2023-10-31T11:15:57;101731.88;;;-0.57;67.59
83448;BME280;73376;45.472;-73.568;2023-10-31T11:18:25;101733.50;;;-0.54;67.52
83448;BME280;73376;45.472;-73.568;2023-10-31T11:20:52;101728.22;;;-0.56;67.50
83448;BME280;73376;45.472;-73.568;2023-10-31T11:23:18;101738.97;;;-0.56;67.17
83448;BME280;73376;45.472;-73.568;2023-10-31T11:25:44;101725.53;;;-0.67;67.63
83448;BME280;73376;45.472;-73.568;2023-10-31T11:28:14;101741.16;;;-0.61;67.71
83448;BME280;73376;45.472;-73.568;2023-10-31T11:30:41;101748.09;;;-0.58;67.36
83448;BME280;73376;45.472;-73.568;2023-10-31T11:33:14;101753.47;;;-0.58;67.61
83448;BME280;73376;45.472;-73.568;2023-10-31T11:35:40;101750.41;;;-0.65;67.59
83448;BME280;73376;45.472;-73.568;2023-10-31T11:38:08;101761.66;;;-0.60;67.27
83448;BME280;73376;45.472;-73.568;2023-10-31T11:40:46;101743.81;;;-0.72;67.28
83448;BME280;73376;45.472;-73.568;2023-10-31T11:43:23;101732.56;;;-0.77;67.13
83448;BME280;73376;45.472;-73.568;2023-10-31T11:45:52;101755.41;;;-0.72;67.18
83448;BME280;73376;45.472;-73.568;2023-10-31T11:48:50;101788.16;;;-0.55;66.99
83448;BME280;73376;45.472;-73.568;2023-10-31T11:51:19;101787.31;;;-0.56;67.15
83448;BME280;73376;45.472;-73.568;2023-10-31T11:53:50;101797.06;;;-0.55;67.19
83448;BME280;73376;45.472;-73.568;2023-10-31T11:56:16;101793.44;;;-0.54;66.98
83448;BME280;73376;45.472;-73.568;2023-10-31T11:58:55;101797.81;;;-0.53;67.09
83448;BME280;73376;45.472;-73.568;2023-10-31T12:01:21;101787.44;;;-0.57;67.27
83448;BME280;73376;45.472;-73.568;2023-10-31T12:03:49;101808.19;;;-0.48;67.08
83448;BME280;73376;45.472;-73.568;2023-10-31T12:06:17;101810.78;;;-0.46;67.14
83448;BME280;73376;45.472;-73.568;2023-10-31T12:08:46;101812.25;;;-0.42;67.18
83448;BME280;73376;45.472;-73.568;2023-10-31T12:11:21;101800.50;;;-0.53;67.30
83448;BME280;73376;45.472;-73.568;2023-10-31T12:14:07;101818.84;;;-0.35;67.59
83448;BME280;73376;45.472;-73.568;2023-10-31T12:16:34;101803.72;;;-0.36;67.46
83448;BME280;73376;45.472;-73.568;2023-10-31T12:19:03;101819.25;;;-0.29;67.51
83448;BME280;73376;45.472;-73.568;2023-10-31T12:21:46;101813.50;;;-0.24;67.48
83448;BME280;73376;45.472;-73.568;2023-10-31T12:24:14;101817.78;;;-0.21;67.33
83448;BME280;73376;45.472;-73.568;2023-10-31T12:26:44;101834.28;;;-0.15;67.88
83448;BME280;73376;45.472;-73.568;2023-10-31T12:29:16;101835.88;;;-0.12;67.58
83448;BME280;73376;45.472;-73.568;2023-10-31T12:31:44;101807.28;;;-0.25;67.34
83448;BME280;73376;45.472;-73.568;2023-10-31T12:34:17;101815.72;;;-0.18;67.60
83448;BME280;73376;45.472;-73.568;2023-10-31T12:36:46;101838.34;;;0.02;67.33
83448;BME280;73376;45.472;-73.568;2023-10-31T12:39:13;101837.13;;;0.06;66.99
83448;BME280;73376;45.472;-73.568;2023-10-31T12:41:40;101846.69;;;0.10;67.01
83448;BME280;73376;45.472;-73.568;2023-10-31T12:44:07;101848.00;;;0.16;66.86